createdAt,value
2023-07-03T00:00:05.019Z,91.64
2023-07-03T00:01:05.028Z,92.14
2023-07-03T00:02:05.059Z,91.94
2023-07-03T00:03:05.029Z,91.64
2023-07-03T00:04:04.997Z,91.07
2023-07-03T00:05:05.056Z,91.07
2023-07-03T00:06:04.958Z,91.17
2023-07-03T00:07:04.933Z,91.99
2023-07-03T00:08:04.922Z,91.48
2023-07-03T00:09:04.906Z,91.88
2023-07-03T00:10:04.924Z,92.80
2023-07-03T00:11:04.908Z,92.60
2023-07-03T00:12:04.880Z,93.05
2023-07-03T00:13:04.879Z,93.45
2023-07-03T00:14:04.850Z,93.66
2023-07-03T00:15:04.873Z,93.70
2023-07-03T00:16:04.870Z,93.80
2023-07-03T00:17:04.835Z,93.50
2023-07-03T00:18:04.829Z,93.70
2023-07-03T00:19:04.792Z,93.80
2023-07-03T00:20:04.807Z,94.05
2023-07-03T00:21:04.767Z,93.64
2023-07-03T00:22:04.755Z,93.74
2023-07-03T00:23:04.763Z,94.35
2023-07-03T00:24:04.753Z,94.35
2023-07-03T00:25:04.743Z,94.46
2023-07-03T00:26:04.721Z,94.35
2023-07-03T00:27:04.708Z,94.15
2023-07-03T00:28:04.717Z,94.56
2023-07-03T00:29:04.702Z,94.66
2023-07-03T00:30:04.670Z,94.87
2023-07-03T00:31:04.666Z,95.21
2023-07-03T00:32:04.722Z,95.21
2023-07-03T00:33:04.658Z,95.62
2023-07-03T00:34:04.654Z,95.52
2023-07-03T00:35:04.620Z,95.73
2023-07-03T00:36:04.607Z,95.52
2023-07-03T00:37:04.605Z,95.67
2023-07-03T00:38:04.596Z,95.73
2023-07-03T00:39:04.590Z,95.62
2023-07-03T00:40:04.551Z,96.03
2023-07-03T00:41:04.570Z,96.14
2023-07-03T00:42:04.542Z,96.03
2023-07-03T00:43:04.545Z,95.83
2023-07-03T00:44:04.516Z,95.77
2023-07-03T00:45:04.498Z,95.97
2023-07-03T00:46:04.533Z,95.87
2023-07-03T00:47:04.484Z,96.18
2023-07-03T00:48:04.513Z,96.59
2023-07-03T00:49:04.459Z,96.94
2023-07-03T00:50:04.458Z,97.04
2023-07-03T00:51:04.434Z,97.14
2023-07-03T00:52:04.447Z,97.24
2023-07-03T00:53:04.438Z,97.34
2023-07-03T00:54:04.413Z,97.34
2023-07-03T00:55:04.507Z,97.75
2023-07-03T00:56:04.427Z,97.75
2023-07-03T00:57:04.391Z,97.75
2023-07-03T00:58:04.356Z,97.55
2023-07-03T00:59:04.353Z,97.60
2023-07-03T01:00:04.340Z,97.80
2023-07-03T01:01:04.341Z,97.90
2023-07-03T01:02:04.357Z,98.21
2023-07-03T01:03:04.334Z,98.11
2023-07-03T01:04:04.299Z,98.11
2023-07-03T01:05:04.311Z,97.90
2023-07-03T01:06:04.345Z,98.00
2023-07-03T01:07:04.260Z,98.31
2023-07-03T01:08:04.246Z,98.41
2023-07-03T01:09:04.235Z,98.41
2023-07-03T01:10:04.227Z,98.61
2023-07-03T01:11:04.227Z,98.66
2023-07-03T01:12:04.206Z,98.56
2023-07-03T01:13:04.215Z,98.46
2023-07-03T01:14:04.188Z,98.36
2023-07-03T01:15:04.185Z,98.61
2023-07-03T01:16:04.232Z,98.52
2023-07-03T01:17:04.154Z,98.21
2023-07-03T01:18:04.137Z,98.46
2023-07-03T01:19:04.117Z,98.77
2023-07-03T01:20:04.140Z,98.66
2023-07-03T01:21:04.107Z,98.66
2023-07-03T01:22:04.087Z,98.77
2023-07-03T01:23:04.082Z,98.66
2023-07-03T01:24:04.066Z,98.66
2023-07-03T01:25:04.075Z,98.66
2023-07-03T01:26:04.038Z,98.86
2023-07-03T01:27:04.071Z,98.86
2023-07-03T01:28:04.035Z,99.22
2023-07-03T01:29:04.125Z,99.52
2023-07-03T01:30:04.057Z,99.63
2023-07-03T01:31:04.035Z,99.73
2023-07-03T01:32:03.988Z,99.93
2023-07-03T01:33:03.988Z,99.99
2023-07-03T01:34:03.983Z,99.99
2023-07-03T01:35:03.946Z,99.99
2023-07-03T01:36:03.925Z,99.99
2023-07-03T01:37:03.926Z,99.99
2023-07-03T01:38:03.916Z,99.99
2023-07-03T01:39:03.919Z,99.99
2023-07-03T01:40:03.893Z,99.99
2023-07-03T01:41:03.875Z,99.99
2023-07-03T01:42:03.880Z,99.99
2023-07-03T01:43:03.877Z,99.99
2023-07-03T01:44:03.862Z,99.99
2023-07-03T01:45:03.837Z,99.99
2023-07-03T01:46:03.851Z,99.99
2023-07-03T01:47:03.821Z,99.99
2023-07-03T01:48:03.852Z,99.99
2023-07-03T01:49:03.795Z,99.99
2023-07-03T01:50:03.796Z,99.99
2023-07-03T01:51:03.778Z,99.99
2023-07-03T01:52:03.772Z,99.99
2023-07-03T01:53:03.768Z,99.99
2023-07-03T01:54:03.722Z,99.99
2023-07-03T01:55:03.723Z,99.99
2023-07-03T01:56:03.712Z,99.99
2023-07-03T01:57:03.726Z,99.99
2023-07-03T01:58:03.746Z,99.99
2023-07-03T01:59:03.675Z,99.99
2023-07-03T02:01:25.338Z,99.99
2023-07-03T02:02:41.807Z,99.99
2023-07-03T02:02:47.252Z,99.99
2023-07-03T02:03:47.204Z,99.99
2023-07-03T02:04:47.206Z,99.99
2023-07-03T02:05:47.206Z,99.99
2023-07-03T02:06:47.178Z,99.99
2023-07-03T02:07:47.144Z,99.99
2023-07-03T02:08:47.133Z,99.99
2023-07-03T02:09:47.130Z,99.99
2023-07-03T02:10:47.133Z,99.99
2023-07-03T02:11:47.133Z,99.99
2023-07-03T02:12:47.082Z,99.99
2023-07-03T02:13:47.076Z,99.99
2023-07-03T02:14:47.071Z,99.99
2023-07-03T02:15:47.076Z,99.99
2023-07-03T02:16:47.084Z,99.99
2023-07-03T02:20:55.638Z,99.99
2023-07-03T02:21:56.631Z,99.99
2023-07-03T02:22:56.610Z,99.99
2023-07-03T02:23:56.607Z,99.99
2023-07-03T02:24:56.614Z,99.99
2023-07-03T02:25:56.590Z,99.99
2023-07-03T02:26:56.569Z,99.99
2023-07-03T02:27:56.557Z,99.99
2023-07-03T02:28:56.567Z,99.99
2023-07-03T02:29:56.553Z,99.99
2023-07-03T02:30:56.527Z,99.99
2023-07-03T02:31:56.503Z,99.99
2023-07-03T02:32:56.560Z,99.99
2023-07-03T02:33:56.501Z,99.99
2023-07-03T02:34:56.499Z,99.99
2023-07-03T02:35:56.475Z,99.99
2023-07-03T02:36:56.458Z,99.99
2023-07-03T02:37:56.443Z,99.99
2023-07-03T02:38:56.446Z,99.99
2023-07-03T02:39:58.006Z,99.99
2023-07-03T02:40:56.413Z,99.99
2023-07-03T02:41:56.396Z,99.99
2023-07-03T02:42:56.423Z,99.99
2023-07-03T02:43:56.390Z,99.99
2023-07-03T02:44:56.372Z,99.99
2023-07-03T02:45:56.355Z,99.99
2023-07-03T02:46:56.375Z,99.99
2023-07-03T02:47:56.391Z,99.99
2023-07-03T02:48:56.335Z,99.99
2023-07-03T02:49:56.332Z,99.99
2023-07-03T02:50:56.300Z,99.99
2023-07-03T02:51:56.286Z,99.99
2023-07-03T02:52:56.309Z,99.99
2023-07-03T02:53:56.298Z,99.99
2023-07-03T02:54:56.280Z,99.99
2023-07-03T02:55:56.253Z,99.99
2023-07-03T02:56:56.246Z,99.99
2023-07-03T02:57:56.280Z,99.99
2023-07-03T02:58:56.208Z,99.99
2023-07-03T02:59:56.206Z,99.99
2023-07-03T03:00:56.230Z,99.99
2023-07-03T03:01:56.195Z,99.99
2023-07-03T03:02:56.277Z,99.99
2023-07-03T03:05:06.887Z,99.99
2023-07-03T03:06:07.873Z,99.99
2023-07-03T03:07:07.851Z,99.99
2023-07-03T03:08:07.821Z,99.99
2023-07-03T03:09:07.816Z,99.99
2023-07-03T03:10:07.895Z,99.99
2023-07-03T03:11:07.860Z,99.99
2023-07-03T03:12:07.780Z,99.99
2023-07-03T03:13:07.762Z,99.99
2023-07-03T03:14:07.757Z,99.99
2023-07-03T03:15:07.760Z,99.99
2023-07-03T03:16:07.763Z,99.99
2023-07-03T03:17:07.731Z,99.99
2023-07-03T03:18:07.758Z,99.99
2023-07-03T03:19:07.713Z,99.99
2023-07-03T03:20:07.707Z,99.99
2023-07-03T03:21:07.732Z,99.99
2023-07-03T03:22:07.679Z,99.99
2023-07-03T03:23:07.654Z,99.99
2023-07-03T03:24:07.647Z,99.99
2023-07-03T03:25:07.684Z,99.99
2023-07-03T03:26:07.622Z,99.99
2023-07-03T03:27:07.671Z,99.99
2023-07-03T03:28:07.606Z,99.99
2023-07-03T03:29:07.596Z,99.99
2023-07-03T03:30:07.641Z,99.99
2023-07-03T03:31:07.588Z,99.99
2023-07-03T03:32:07.551Z,99.99
2023-07-03T03:33:07.540Z,99.99
2023-07-03T03:34:07.575Z,99.99
2023-07-03T03:35:07.552Z,99.99
2023-07-03T03:36:07.506Z,99.99
2023-07-03T03:37:07.505Z,99.99
2023-07-03T03:38:07.504Z,99.99
2023-07-03T03:39:07.500Z,99.99
2023-07-03T03:40:07.478Z,99.99
2023-07-03T03:41:07.443Z,99.99
2023-07-03T03:42:07.444Z,99.99
2023-07-03T03:43:07.421Z,99.99
2023-07-03T03:44:07.444Z,99.99
2023-07-03T03:45:07.424Z,99.99
2023-07-03T03:46:07.394Z,99.99
2023-07-03T03:47:07.404Z,99.99
2023-07-03T03:48:07.474Z,99.99
2023-07-03T03:49:07.397Z,99.99
2023-07-03T03:50:07.361Z,99.99
2023-07-03T03:51:07.365Z,99.99
2023-07-03T03:52:07.354Z,99.99
2023-07-03T03:53:07.369Z,99.99
2023-07-03T03:54:07.319Z,99.99
2023-07-03T03:55:07.298Z,99.99
2023-07-03T03:56:07.284Z,99.99
2023-07-03T03:57:07.270Z,99.99
2023-07-03T03:58:07.268Z,99.99
2023-07-03T03:59:07.252Z,99.99
2023-07-03T04:00:07.238Z,99.99
2023-07-03T04:01:07.217Z,99.99
2023-07-03T04:02:07.293Z,99.99
2023-07-03T04:03:07.266Z,99.99
2023-07-03T04:04:07.269Z,99.99
2023-07-03T04:05:07.215Z,99.99
2023-07-03T04:06:07.169Z,99.99
2023-07-03T04:07:07.171Z,99.99
2023-07-03T04:08:07.138Z,99.99
2023-07-03T04:09:07.214Z,99.99
2023-07-03T04:10:07.136Z,99.99
2023-07-03T04:11:07.123Z,99.99
2023-07-03T04:12:07.113Z,99.99
2023-07-03T04:13:07.109Z,99.99
2023-07-03T04:14:07.150Z,99.99
2023-07-03T04:15:07.078Z,99.99
2023-07-03T04:16:07.100Z,99.99
2023-07-03T04:17:07.048Z,99.99
2023-07-03T04:18:07.049Z,99.99
2023-07-03T04:19:07.012Z,99.99
2023-07-03T04:20:07.003Z,99.99
2023-07-03T04:21:07.011Z,99.99
2023-07-03T04:22:06.991Z,99.99
2023-07-03T04:23:06.994Z,99.99
2023-07-03T04:24:06.957Z,99.99
2023-07-03T04:25:06.966Z,99.99
2023-07-03T04:26:06.950Z,99.99
2023-07-03T04:27:06.926Z,99.99
2023-07-03T04:28:06.920Z,99.99
2023-07-03T04:29:06.906Z,99.99
2023-07-03T04:30:06.918Z,99.99
2023-07-03T04:31:06.921Z,99.89
2023-07-03T04:32:06.940Z,99.99
2023-07-03T04:33:06.879Z,99.48
2023-07-03T04:34:06.856Z,99.43
2023-07-03T04:35:06.869Z,99.64
2023-07-03T04:36:06.837Z,99.43
2023-07-03T04:37:06.811Z,99.49
2023-07-03T04:38:06.822Z,99.08
2023-07-03T04:39:06.786Z,98.88
2023-07-03T04:40:06.800Z,98.47
2023-07-03T04:41:06.782Z,98.32
2023-07-03T04:42:06.753Z,98.43
2023-07-03T04:43:06.745Z,97.71
2023-07-03T04:44:06.785Z,97.30
2023-07-03T04:45:06.738Z,97.50
2023-07-03T04:46:06.768Z,97.40
2023-07-03T04:47:06.690Z,97.50
2023-07-03T04:48:06.690Z,97.00
2023-07-03T04:49:06.730Z,95.93
2023-07-03T04:50:06.667Z,96.95
2023-07-03T04:51:06.658Z,97.87
2023-07-03T04:52:06.636Z,97.87
2023-07-03T04:53:06.642Z,97.82
2023-07-03T04:54:06.640Z,97.72
2023-07-03T04:55:06.605Z,97.00
2023-07-03T04:56:06.611Z,96.91
2023-07-03T04:57:06.596Z,97.06
2023-07-03T04:58:06.597Z,97.16
2023-07-03T04:59:06.577Z,97.06
2023-07-03T05:00:06.573Z,96.96
2023-07-03T05:01:06.567Z,96.66
2023-07-03T05:02:06.541Z,96.55
2023-07-03T05:03:06.636Z,96.61
2023-07-03T05:04:06.654Z,96.41
2023-07-03T05:05:06.558Z,96.26
2023-07-03T05:06:06.485Z,95.95
2023-07-03T05:07:06.474Z,95.54
2023-07-03T05:08:06.495Z,95.24
2023-07-03T05:09:06.449Z,95.04
2023-07-03T05:10:06.450Z,94.79
2023-07-03T05:11:06.437Z,93.87
2023-07-03T05:12:06.460Z,93.26
2023-07-03T05:13:06.458Z,92.96
2023-07-03T05:14:06.399Z,93.12
2023-07-03T05:15:06.377Z,92.10
2023-07-03T05:16:06.477Z,91.96
2023-07-03T05:17:06.375Z,90.53
2023-07-03T05:18:06.497Z,90.90
2023-07-03T05:19:06.338Z,90.75
2023-07-03T05:20:06.339Z,90.45
2023-07-03T05:21:06.323Z,89.94
2023-07-03T05:22:06.338Z,90.25
2023-07-03T05:23:06.307Z,90.14
2023-07-03T05:24:06.297Z,89.90
2023-07-03T05:25:06.273Z,89.59
2023-07-03T05:26:06.280Z,90.61
2023-07-03T05:27:06.272Z,90.71
2023-07-03T05:28:06.253Z,90.00
2023-07-03T05:29:06.231Z,89.76
2023-07-03T05:30:06.239Z,88.54
2023-07-03T05:31:06.394Z,86.61
2023-07-03T05:32:06.209Z,85.80
2023-07-03T05:33:06.211Z,85.50
2023-07-03T05:34:06.185Z,86.37
2023-07-03T05:35:06.174Z,86.16
2023-07-03T05:36:06.172Z,85.66
2023-07-03T05:37:06.176Z,86.16
2023-07-03T05:38:06.124Z,86.98
2023-07-03T05:39:06.161Z,85.76
2023-07-03T05:40:06.142Z,84.70
2023-07-03T05:41:06.093Z,85.01
2023-07-03T05:42:06.078Z,84.70
2023-07-03T05:43:06.066Z,84.16
2023-07-03T05:44:06.062Z,84.16
2023-07-03T05:45:06.080Z,82.95
2023-07-03T05:46:06.042Z,82.84
2023-07-03T05:47:07.819Z,83.15
2023-07-03T05:48:06.152Z,83.31
2023-07-03T05:49:06.032Z,83.61
2023-07-03T05:50:06.034Z,83.07
2023-07-03T05:51:05.985Z,81.05
2023-07-03T05:52:05.988Z,81.11
2023-07-03T05:53:05.956Z,81.11
2023-07-03T05:54:06.002Z,80.60
2023-07-03T05:55:05.951Z,80.91
2023-07-03T05:56:05.953Z,80.71
2023-07-03T05:57:05.924Z,80.16
2023-07-03T05:58:05.929Z,80.36
2023-07-03T05:59:05.916Z,79.72
2023-07-03T06:00:05.911Z,79.01
2023-07-03T06:01:05.942Z,79.62
2023-07-03T06:02:05.869Z,79.01
2023-07-03T06:03:06.205Z,78.41
2023-07-03T06:04:05.967Z,77.90
2023-07-03T06:05:05.850Z,78.00
2023-07-03T06:06:05.849Z,78.41
2023-07-03T06:07:05.800Z,77.56
2023-07-03T06:08:05.891Z,77.56
2023-07-03T06:09:05.824Z,76.95
2023-07-03T06:10:05.768Z,76.75
2023-07-03T06:11:05.767Z,77.12
2023-07-03T06:12:05.751Z,76.01
2023-07-03T06:13:05.857Z,76.72
2023-07-03T06:14:05.727Z,76.62
2023-07-03T06:15:05.738Z,77.28
2023-07-03T06:16:05.730Z,76.84
2023-07-03T06:17:05.733Z,75.34
2023-07-03T06:18:05.767Z,71.84
2023-07-03T06:19:05.665Z,73.42
2023-07-03T06:20:05.653Z,73.32
2023-07-03T06:21:05.675Z,73.72
2023-07-03T06:22:05.686Z,72.31
2023-07-03T06:23:05.653Z,73.08
2023-07-03T06:24:05.611Z,72.17
2023-07-03T06:25:05.625Z,71.37
2023-07-03T06:26:05.628Z,71.87
2023-07-03T06:27:05.640Z,71.23
2023-07-03T06:28:05.580Z,71.60
2023-07-03T06:29:05.553Z,71.91
2023-07-03T06:30:05.580Z,70.90
2023-07-03T06:31:05.583Z,71.10
2023-07-03T06:32:05.532Z,71.26
2023-07-03T06:33:05.551Z,70.50
2023-07-03T06:34:05.512Z,69.89
2023-07-03T06:35:06.997Z,69.89
2023-07-03T06:36:05.562Z,70.46
2023-07-03T06:37:05.458Z,70.66
2023-07-03T06:38:05.450Z,69.85
2023-07-03T06:39:05.449Z,70.29
2023-07-03T06:40:05.435Z,69.89
2023-07-03T06:41:05.437Z,70.56
2023-07-03T06:42:05.453Z,69.35
2023-07-03T06:43:05.395Z,70.06
2023-07-03T06:44:05.405Z,69.56
2023-07-03T06:45:05.410Z,69.82
2023-07-03T06:46:05.363Z,68.91
2023-07-03T06:47:05.452Z,68.62
2023-07-03T06:48:05.451Z,69.69
2023-07-03T06:49:05.340Z,68.28
2023-07-03T06:50:05.339Z,68.95
2023-07-03T06:51:05.310Z,67.14
2023-07-03T06:52:05.289Z,66.71
2023-07-03T06:53:05.283Z,64.90
2023-07-03T06:54:05.301Z,65.91
2023-07-03T06:55:05.274Z,65.67
2023-07-03T06:56:05.241Z,66.88
2023-07-03T06:57:05.228Z,66.55
2023-07-03T06:58:05.236Z,65.94
2023-07-03T06:59:05.285Z,64.34
2023-07-03T07:00:05.186Z,65.54
2023-07-03T07:01:05.192Z,65.37
2023-07-03T07:02:05.210Z,65.07
2023-07-03T07:03:05.245Z,64.97
2023-07-03T07:04:05.221Z,65.17
2023-07-03T07:05:05.248Z,65.88
2023-07-03T07:06:05.379Z,66.67
2023-07-03T07:07:05.125Z,65.77
2023-07-03T07:08:05.122Z,66.28
2023-07-03T07:09:05.116Z,65.47
2023-07-03T07:10:05.128Z,66.28
2023-07-03T07:11:05.073Z,66.47
2023-07-03T07:12:05.076Z,66.08
2023-07-03T07:13:05.078Z,66.78
2023-07-03T07:14:05.064Z,65.27
2023-07-03T07:15:05.037Z,65.88
2023-07-03T07:16:05.020Z,63.36
2023-07-03T07:17:05.126Z,65.27
2023-07-03T07:18:05.069Z,65.34
2023-07-03T07:19:04.979Z,63.33
2023-07-03T07:20:05.000Z,64.94
2023-07-03T07:21:04.964Z,64.31
2023-07-03T07:22:04.982Z,63.81
2023-07-03T07:23:04.970Z,62.80
2023-07-03T07:24:04.931Z,64.58
2023-07-03T07:25:04.928Z,64.45
2023-07-03T07:26:04.948Z,63.45
2023-07-03T07:27:04.960Z,63.24
2023-07-03T07:28:04.913Z,62.67
2023-07-03T07:29:04.891Z,64.18
2023-07-03T07:30:04.881Z,64.18
2023-07-03T07:31:04.920Z,64.04
2023-07-03T07:32:04.857Z,63.24
2023-07-03T07:33:04.885Z,62.31
2023-07-03T07:34:04.824Z,62.18
2023-07-03T07:35:04.817Z,61.48
2023-07-03T07:36:04.815Z,61.31
2023-07-03T07:37:04.789Z,62.54
2023-07-03T07:38:04.808Z,62.51
2023-07-03T07:39:04.761Z,62.98
2023-07-03T07:40:04.767Z,61.88
2023-07-03T07:41:04.763Z,60.75
2023-07-03T07:42:04.721Z,59.99
2023-07-03T07:43:04.722Z,59.01
2023-07-03T07:44:04.702Z,55.21
2023-07-03T07:45:04.717Z,55.18
2023-07-03T07:46:04.716Z,53.81
2023-07-03T07:47:04.676Z,52.91
2023-07-03T07:48:04.730Z,50.85
2023-07-03T07:49:04.644Z,52.74
2023-07-03T07:50:04.653Z,52.34
2023-07-03T07:51:04.624Z,49.34
2023-07-03T07:52:04.600Z,49.49
2023-07-03T07:53:04.610Z,49.32
2023-07-03T07:54:04.595Z,50.26
2023-07-03T07:55:04.597Z,49.57
2023-07-03T07:56:04.579Z,50.85
2023-07-03T07:57:04.545Z,52.22
2023-07-03T07:58:04.606Z,52.19
2023-07-03T07:59:04.551Z,52.14
2023-07-03T08:00:04.570Z,51.40
2023-07-03T08:01:04.620Z,49.12
2023-07-03T08:02:04.544Z,48.85
2023-07-03T08:03:07.277Z,49.86
2023-07-03T08:04:04.502Z,50.31
2023-07-03T08:05:04.533Z,50.85
2023-07-03T08:06:04.646Z,50.73
2023-07-03T08:07:04.464Z,49.44
2023-07-03T08:08:04.474Z,52.04
2023-07-03T08:09:04.446Z,52.00
2023-07-03T08:10:04.408Z,53.69
2023-07-03T08:11:04.392Z,52.64
2023-07-03T08:12:04.405Z,53.66
2023-07-03T08:13:04.407Z,53.59
2023-07-03T08:14:04.400Z,53.86
2023-07-03T08:15:04.364Z,54.74
2023-07-03T08:16:04.356Z,54.61
2023-07-03T08:17:04.336Z,54.28
2023-07-03T08:18:04.373Z,53.04
2023-07-03T08:19:04.317Z,53.14
2023-07-03T08:20:04.299Z,53.04
2023-07-03T08:21:04.277Z,52.19
2023-07-03T08:22:04.299Z,54.31
2023-07-03T08:23:04.290Z,53.24
2023-07-03T08:24:05.281Z,53.94
2023-07-03T08:25:04.245Z,55.24
2023-07-03T08:26:04.236Z,54.14
2023-07-03T08:27:04.259Z,54.76
2023-07-03T08:28:04.218Z,54.94
2023-07-03T08:29:04.198Z,54.36
2023-07-03T08:30:04.181Z,55.74
2023-07-03T08:31:04.179Z,56.99
2023-07-03T08:32:04.387Z,56.89
2023-07-03T08:33:04.326Z,57.67
2023-07-03T08:34:04.231Z,56.96
2023-07-03T08:38:04.085Z,58.75
2023-07-03T08:39:04.084Z,58.92
2023-07-03T08:40:04.082Z,59.39
2023-07-03T08:41:04.067Z,58.44
2023-07-03T08:42:04.056Z,57.09
2023-07-03T08:43:04.049Z,55.21
2023-07-03T08:44:04.025Z,53.74
2023-07-03T08:45:04.038Z,53.28
2023-07-03T08:46:04.102Z,53.28
2023-07-03T08:47:11.616Z,53.44
2023-07-03T08:48:04.075Z,53.99
2023-07-03T08:49:03.986Z,54.94
2023-07-03T08:50:04.469Z,55.93
2023-07-03T08:51:03.957Z,54.64
2023-07-03T08:52:04.311Z,55.33
2023-07-03T08:53:04.641Z,55.93
2023-07-03T08:54:03.917Z,53.39
2023-07-03T08:55:03.960Z,50.09
2023-07-03T08:56:03.906Z,50.06
2023-07-03T08:57:03.889Z,47.69
2023-07-03T08:58:03.888Z,45.28
2023-07-03T08:59:03.867Z,46.37
2023-07-03T09:00:03.877Z,45.67
2023-07-03T09:01:03.912Z,45.78
2023-07-03T09:02:03.886Z,44.81
2023-07-03T09:03:03.974Z,45.53
2023-07-03T09:04:03.884Z,44.33
2023-07-03T09:05:03.891Z,44.27
2023-07-03T09:06:03.779Z,43.37
2023-07-03T09:07:03.887Z,42.44
2023-07-03T09:08:03.747Z,43.66
2023-07-03T09:09:03.776Z,43.55
2023-07-03T09:10:03.735Z,45.68
2023-07-03T09:11:03.711Z,46.33
2023-07-03T09:12:03.727Z,46.97
2023-07-03T09:13:03.706Z,47.56
2023-07-03T09:14:03.998Z,46.55
2023-07-03T09:15:05.662Z,48.30
2023-07-03T09:16:03.677Z,46.60
2023-07-03T09:17:03.691Z,47.03
2023-07-03T09:18:03.739Z,45.26
2023-07-03T09:19:03.657Z,43.20
2023-07-03T09:20:03.623Z,42.67
2023-07-03T09:21:03.613Z,41.00
2023-07-03T09:22:03.598Z,40.66
2023-07-03T09:23:03.619Z,42.49
2023-07-03T09:24:03.584Z,43.10
2023-07-03T09:25:03.580Z,41.29
2023-07-03T09:26:05.208Z,41.49
2023-07-03T09:27:03.725Z,41.09
2023-07-03T09:28:03.542Z,41.63
2023-07-03T09:29:03.513Z,41.91
2023-07-03T09:30:03.525Z,43.96
2023-07-03T09:31:04.962Z,43.91
2023-07-03T09:32:03.549Z,45.23
2023-07-03T09:33:03.531Z,47.24
2023-07-03T09:34:03.452Z,46.74
2023-07-03T09:35:03.475Z,47.16
2023-07-03T09:36:03.436Z,47.61
2023-07-03T09:37:03.459Z,48.20
2023-07-03T09:38:03.440Z,48.92
2023-07-03T09:39:03.448Z,47.95
2023-07-03T09:40:03.454Z,47.04
2023-07-03T09:41:03.397Z,46.16
2023-07-03T09:42:03.417Z,45.90
2023-07-03T09:43:03.358Z,46.23
2023-07-03T09:44:03.381Z,46.07
2023-07-03T09:45:03.353Z,46.86
2023-07-03T09:46:03.353Z,45.78
2023-07-03T09:47:03.379Z,46.89
2023-07-03T09:48:04.243Z,47.50
2023-07-03T09:49:03.308Z,46.64
2023-07-03T09:50:03.295Z,47.33
2023-07-03T09:51:07.606Z,46.84
2023-07-03T09:52:03.266Z,44.62
2023-07-03T09:53:09.036Z,45.08
2023-07-03T09:54:03.249Z,46.89
2023-07-03T09:55:03.235Z,46.81
2023-07-03T09:56:03.262Z,46.76
2023-07-03T09:57:03.207Z,45.76
2023-07-03T09:58:03.204Z,45.85
2023-07-03T09:59:03.207Z,44.09
2023-07-03T10:00:03.204Z,43.70
2023-07-03T10:01:03.285Z,42.18
2023-07-03T10:04:03.278Z,39.94
2023-07-03T10:07:03.266Z,43.93
2023-07-03T10:08:03.194Z,44.02
2023-07-03T10:12:03.136Z,40.39
2023-07-03T10:13:03.105Z,39.60
2023-07-03T10:14:03.087Z,38.64
2023-07-03T10:15:03.028Z,39.15
2023-07-03T10:16:03.024Z,40.76
2023-07-03T10:17:03.070Z,39.87
2023-07-03T10:18:03.003Z,41.10
2023-07-03T10:19:02.988Z,42.66
2023-07-03T10:20:02.964Z,44.39
2023-07-03T10:21:02.942Z,44.51
2023-07-03T10:22:02.937Z,45.90
2023-07-03T10:23:02.946Z,46.44
2023-07-03T10:24:02.950Z,46.95
2023-07-03T10:25:02.931Z,47.30
2023-07-03T10:26:02.893Z,47.30
2023-07-03T10:27:02.891Z,46.90
2023-07-03T10:28:02.962Z,46.58
2023-07-03T10:29:02.887Z,46.24
2023-07-03T10:30:02.860Z,45.86
2023-07-03T10:31:02.858Z,47.70
2023-07-03T10:32:03.437Z,47.50
2023-07-03T10:33:02.895Z,47.72
2023-07-03T10:34:02.915Z,47.74
2023-07-03T10:36:27.968Z,49.58
2023-07-03T10:37:14.216Z,48.13
2023-07-03T10:38:13.940Z,49.43
2023-07-03T10:39:13.948Z,49.23
2023-07-03T10:40:13.992Z,50.13
2023-07-03T10:41:13.923Z,51.12
2023-07-03T10:43:24.085Z,49.45
2023-07-03T10:44:25.054Z,51.17
2023-07-03T10:45:25.031Z,50.40
2023-07-03T10:46:26.024Z,51.62
2023-07-03T10:47:25.078Z,52.32
2023-07-03T10:48:25.004Z,50.65
2023-07-03T10:49:24.994Z,49.15
2023-07-03T10:50:24.976Z,50.62
2023-07-03T10:51:25.048Z,51.20
2023-07-03T10:52:26.030Z,48.69
2023-07-03T10:53:24.959Z,49.51
2023-07-03T10:54:24.942Z,48.94
2023-07-03T10:55:24.924Z,48.76
2023-07-03T10:56:24.939Z,48.96
2023-07-03T10:57:24.895Z,49.08
2023-07-03T10:58:25.063Z,49.63
2023-07-03T10:59:25.021Z,46.53
2023-07-03T11:00:24.894Z,46.46
2023-07-03T11:01:24.895Z,46.88
2023-07-03T11:02:24.896Z,46.68
2023-07-03T11:03:24.847Z,47.97
2023-07-03T11:04:26.030Z,47.17
2023-07-03T11:05:24.873Z,46.92
2023-07-03T11:06:24.815Z,46.83
2023-07-03T11:07:24.800Z,47.05
2023-07-03T11:08:24.794Z,47.27
2023-07-03T11:09:24.794Z,48.46
2023-07-03T11:10:25.295Z,46.19
2023-07-03T11:11:24.756Z,43.88
2023-07-03T11:12:24.734Z,42.34
2023-07-03T11:13:24.744Z,39.95
2023-07-03T11:14:24.733Z,38.80
2023-07-03T11:15:24.713Z,38.70
2023-07-03T11:16:26.198Z,35.89
2023-07-03T11:17:24.815Z,36.52
2023-07-03T11:20:24.825Z,32.78
2023-07-03T11:23:24.661Z,33.30
2023-07-03T11:24:24.618Z,35.00
2023-07-03T11:25:24.647Z,35.14
2023-07-03T11:28:26.863Z,38.20
2023-07-03T11:29:24.631Z,40.33
2023-07-03T11:30:24.724Z,40.74
2023-07-03T11:31:24.653Z,40.21
2023-07-03T11:32:25.122Z,39.12
2023-07-03T11:33:24.660Z,38.30
2023-07-03T11:36:32.405Z,38.71
2023-07-03T11:37:24.733Z,39.25
2023-07-03T11:40:25.958Z,39.05
2023-07-03T11:44:26.871Z,33.36
2023-07-03T11:45:24.501Z,33.09
2023-07-03T11:46:24.399Z,32.95
2023-07-03T11:47:24.414Z,32.56
2023-07-03T11:48:24.334Z,32.82
2023-07-03T11:49:24.335Z,31.75
2023-07-03T11:50:24.317Z,32.65
2023-07-03T11:51:24.394Z,33.34
2023-07-03T11:52:24.323Z,34.89
2023-07-03T11:53:24.310Z,35.31
2023-07-03T11:54:24.272Z,36.30
2023-07-03T11:55:24.253Z,36.45
2023-07-03T11:56:24.297Z,35.97
2023-07-03T11:57:24.233Z,38.06
2023-07-03T11:58:24.252Z,38.82
2023-07-03T11:59:24.233Z,40.55
2023-07-03T12:00:24.214Z,40.76
2023-07-03T12:01:24.335Z,38.22
2023-07-03T12:02:24.208Z,36.52
2023-07-03T12:03:24.199Z,33.70
2023-07-03T12:04:24.170Z,34.16
2023-07-03T12:05:24.178Z,32.45
2023-07-03T12:06:24.158Z,32.18
2023-07-03T12:07:24.140Z,31.17
2023-07-03T12:08:24.116Z,31.07
2023-07-03T12:09:24.119Z,30.35
2023-07-03T12:10:24.106Z,31.13
2023-07-03T12:11:24.096Z,31.38
2023-07-03T12:12:24.073Z,30.88
2023-07-03T12:13:24.073Z,31.01
2023-07-03T12:14:24.100Z,31.57
2023-07-03T12:15:24.063Z,31.80
2023-07-03T12:16:24.079Z,31.59
2023-07-03T12:17:24.037Z,33.31
2023-07-03T12:18:24.011Z,35.08
2023-07-03T12:19:24.065Z,35.96
2023-07-03T12:20:23.981Z,36.90
2023-07-03T12:21:23.990Z,38.51
2023-07-03T12:22:23.979Z,39.62
2023-07-03T12:23:23.949Z,38.94
2023-07-03T12:24:23.974Z,39.37
2023-07-03T12:25:23.948Z,40.50
2023-07-03T12:26:23.925Z,40.90
2023-07-03T12:27:23.992Z,41.38
2023-07-03T12:28:23.939Z,39.30
2023-07-03T12:29:24.089Z,38.92
2023-07-03T12:30:23.872Z,40.42
2023-07-03T12:31:23.981Z,40.94
2023-07-03T12:32:23.885Z,40.98
2023-07-03T12:33:23.876Z,41.18
2023-07-03T12:34:23.834Z,41.41
2023-07-03T12:35:23.817Z,43.91
2023-07-03T12:36:23.824Z,42.01
2023-07-03T12:37:23.799Z,40.80
2023-07-03T12:38:23.809Z,41.25
2023-07-03T12:39:23.773Z,40.25
2023-07-03T12:40:23.780Z,40.70
2023-07-03T12:41:23.753Z,37.38
2023-07-03T12:42:23.758Z,36.01
2023-07-03T12:43:23.752Z,33.77
2023-07-03T12:44:23.723Z,33.70
2023-07-03T12:45:23.712Z,31.15
2023-07-03T12:46:23.730Z,31.23
2023-07-03T12:47:23.727Z,31.60
2023-07-03T12:48:23.681Z,31.10
2023-07-03T12:49:23.662Z,31.62
2023-07-03T12:50:23.660Z,31.35
2023-07-03T12:51:23.639Z,31.01
2023-07-03T12:52:23.649Z,31.12
2023-07-03T12:53:23.616Z,31.10
2023-07-03T12:54:23.636Z,31.99
2023-07-03T12:55:23.609Z,33.46
2023-07-03T12:56:23.595Z,34.08
2023-07-03T12:57:23.606Z,34.00
2023-07-03T12:58:23.569Z,35.63
2023-07-03T12:59:25.542Z,36.94
2023-07-03T13:00:23.530Z,36.86
2023-07-03T13:01:23.628Z,38.08
2023-07-03T13:02:23.584Z,37.64
2023-07-03T13:03:23.501Z,39.77
2023-07-03T13:04:23.564Z,39.79
2023-07-03T13:05:23.755Z,40.58
2023-07-03T13:06:23.537Z,39.81
2023-07-03T13:07:23.475Z,41.28
2023-07-03T13:08:23.475Z,40.76
2023-07-03T13:09:23.448Z,39.64
2023-07-03T13:10:23.519Z,40.42
2023-07-03T13:11:23.453Z,38.75
2023-07-03T13:12:23.426Z,38.96
2023-07-03T13:13:23.470Z,39.48
2023-07-03T13:14:23.397Z,39.71
2023-07-03T13:15:23.390Z,39.69
2023-07-03T13:16:23.411Z,39.89
2023-07-03T13:17:23.384Z,39.85
2023-07-03T13:18:23.348Z,40.70
2023-07-03T13:19:23.338Z,45.06
2023-07-03T13:20:23.351Z,43.43
2023-07-03T13:21:23.307Z,41.12
2023-07-03T13:22:23.299Z,38.20